createdAt,value
2022-11-27T00:03:24.176Z,19.60
2022-11-27T00:08:55.434Z,22.43
2022-11-27T00:14:25.631Z,20.03
2022-11-27T00:19:52.077Z,19.97
2022-11-27T00:25:18.349Z,19.77
2022-11-27T00:30:44.204Z,20.03
2022-11-27T00:36:10.779Z,20.13
2022-11-27T00:41:36.201Z,27.97
2022-11-27T00:47:01.159Z,18.87
2022-11-27T00:52:29.928Z,19.93
2022-11-27T00:58:04.851Z,16.57
2022-11-27T01:03:29.410Z,22.50
2022-11-27T01:08:56.424Z,20.13
2022-11-27T01:14:27.840Z,17.27
2022-11-27T01:19:52.680Z,20.87
2022-11-27T01:25:21.917Z,17.40
2022-11-27T01:30:51.892Z,16.27
2022-11-27T01:36:27.841Z,16.60
2022-11-27T01:41:55.377Z,16.67
2022-11-27T01:47:44.437Z,13.33
2022-11-27T01:53:13.369Z,19.50
2022-11-27T01:58:42.567Z,16.83
2022-11-27T02:04:08.878Z,15.90
2022-11-27T02:09:34.682Z,15.37
2022-11-27T02:15:15.842Z,13.07
2022-11-27T02:20:56.972Z,19.40
2022-11-27T02:26:40.057Z,17.60
2022-11-27T02:32:13.430Z,11.57
2022-11-27T02:37:43.360Z,15.87
2022-11-27T02:43:14.638Z,14.10
2022-11-27T02:48:50.091Z,13.20
2022-11-27T02:54:31.632Z,14.53
2022-11-27T03:00:01.532Z,14.43
2022-11-27T03:05:38.354Z,15.83
2022-11-27T03:11:13.896Z,12.83
2022-11-27T03:16:43.066Z,19.47
2022-11-27T03:22:34.143Z,13.90
2022-11-27T03:28:06.473Z,13.03
2022-11-27T03:33:38.193Z,16.60
2022-11-27T03:39:15.728Z,13.70
2022-11-27T03:44:48.951Z,14.30
2022-11-27T03:50:29.641Z,16.30
2022-11-27T03:56:10.198Z,19.50
2022-11-27T04:01:40.999Z,14.10
2022-11-27T04:07:05.990Z,17.63
2022-11-27T04:12:36.373Z,19.33
2022-11-27T04:18:01.154Z,16.70
2022-11-27T04:23:25.510Z,18.90
2022-11-27T04:28:59.217Z,11.73
2022-11-27T04:34:37.781Z,15.07
2022-11-27T04:40:03.187Z,16.40
2022-11-27T04:45:27.966Z,13.37
2022-11-27T04:50:55.757Z,13.67
2022-11-27T04:56:19.238Z,12.80
2022-11-27T05:01:51.142Z,16.47
2022-11-27T05:07:18.593Z,16.20
2022-11-27T05:12:46.512Z,14.70
2022-11-27T05:18:18.989Z,12.80
2022-11-27T05:23:53.422Z,14.57
2022-11-27T05:29:19.666Z,16.80
2022-11-27T05:34:45.096Z,14.23
2022-11-27T05:40:20.565Z,13.90
2022-11-27T05:45:45.075Z,13.70
2022-11-27T05:51:18.471Z,15.97
2022-11-27T05:56:47.475Z,14.10
2022-11-27T06:02:29.647Z,18.00
2022-11-27T06:08:00.508Z,17.40
2022-11-27T06:13:23.674Z,15.93
2022-11-27T06:18:54.630Z,16.17
2022-11-27T06:24:23.237Z,14.90
2022-11-27T06:29:54.597Z,18.37
2022-11-27T06:35:19.053Z,12.83
2022-11-27T06:40:51.550Z,13.23
2022-11-27T06:46:23.519Z,17.33
2022-11-27T06:51:49.241Z,12.77
2022-11-27T06:57:18.140Z,12.93
2022-11-27T07:02:42.747Z,12.63
2022-11-27T07:08:16.979Z,18.87
2022-11-27T07:13:47.021Z,13.63
2022-11-27T07:19:12.917Z,20.53
2022-11-27T07:24:42.865Z,17.40
2022-11-27T07:30:17.543Z,12.20
2022-11-27T07:35:42.662Z,13.87
2022-11-27T07:41:17.316Z,11.87
2022-11-27T07:46:48.794Z,11.83
2022-11-27T07:52:17.858Z,13.60
2022-11-27T07:57:48.146Z,11.67
2022-11-27T08:03:15.386Z,11.80
2022-11-27T08:15:05.374Z,10.43
2022-11-27T08:21:05.639Z,10.47
2022-11-27T08:26:30.121Z,9.33
2022-11-27T08:31:59.121Z,10.60
2022-11-27T08:37:34.348Z,9.67
2022-11-27T08:43:04.856Z,6.80
2022-11-27T08:48:41.753Z,8.13
2022-11-27T08:54:22.844Z,9.87
2022-11-27T08:59:49.345Z,11.63
2022-11-27T09:05:18.262Z,6.73
2022-11-27T09:10:54.805Z,8.70
2022-11-27T09:16:24.904Z,8.07
2022-11-27T09:21:50.477Z,10.60
2022-11-27T09:27:27.318Z,9.07
2022-11-27T09:33:03.361Z,11.80
2022-11-27T09:38:29.099Z,6.47
2022-11-27T09:44:22.132Z,6.40
2022-11-27T09:49:53.872Z,7.13
2022-11-27T09:55:25.389Z,6.47
2022-11-27T10:01:01.747Z,10.80
2022-11-27T10:06:36.667Z,5.93
2022-11-27T10:12:23.478Z,5.27
2022-11-27T10:18:10.340Z,6.43
2022-11-27T10:24:10.169Z,9.50
2022-11-27T10:29:48.931Z,5.97
2022-11-27T10:35:20.187Z,6.60
2022-11-27T10:41:00.921Z,6.27
2022-11-27T10:46:35.456Z,5.47
2022-11-27T10:52:07.493Z,5.77
2022-11-27T10:57:48.479Z,6.27
2022-11-27T11:03:22.502Z,6.07
2022-11-27T11:09:13.372Z,6.83
2022-11-27T11:14:46.972Z,9.60
2022-11-27T11:20:26.526Z,6.77
2022-11-27T11:25:58.386Z,8.93
2022-11-27T11:31:27.503Z,11.57
2022-11-27T11:36:59.489Z,11.80
2022-11-27T11:42:53.625Z,10.73
2022-11-27T11:48:30.012Z,9.53
2022-11-27T11:54:07.324Z,8.90
2022-11-27T11:59:45.743Z,6.63
2022-11-27T12:05:53.187Z,6.73
2022-11-27T12:11:18.987Z,7.53
2022-11-27T12:17:00.163Z,8.80
2022-11-27T12:22:38.537Z,7.53
2022-11-27T12:28:15.463Z,9.53
2022-11-27T12:34:10.635Z,7.43
2022-11-27T12:39:39.037Z,6.03
2022-11-27T12:45:12.590Z,7.67
2022-11-27T12:50:51.143Z,6.87
2022-11-27T12:56:27.086Z,5.83
2022-11-27T13:01:59.354Z,6.77
2022-11-27T13:07:43.205Z,8.50
2022-11-27T13:13:11.797Z,7.23
2022-11-27T13:18:46.207Z,9.33
2022-11-27T13:24:16.988Z,6.23
2022-11-27T13:29:49.944Z,14.23
2022-11-27T13:35:30.012Z,7.63
2022-11-27T13:47:05.663Z,9.13
2022-11-27T13:52:30.313Z,8.30
2022-11-27T13:57:59.632Z,11.47
2022-11-27T14:03:29.462Z,12.33
2022-11-27T14:09:05.654Z,10.60
2022-11-27T14:14:33.081Z,8.60
2022-11-27T14:20:13.881Z,6.67
2022-11-27T14:25:38.611Z,5.53
2022-11-27T14:31:17.257Z,10.17
2022-11-27T14:36:41.132Z,5.23
2022-11-27T14:42:09.045Z,7.50
2022-11-27T14:47:36.570Z,9.20
2022-11-27T14:53:06.333Z,8.57
2022-11-27T14:58:40.044Z,8.40
2022-11-27T15:04:09.654Z,8.93
2022-11-27T15:09:39.061Z,12.80
2022-11-27T15:15:19.345Z,9.53
2022-11-27T15:20:50.034Z,11.67
2022-11-27T15:26:22.501Z,9.63
2022-11-27T15:32:00.014Z,8.73
2022-11-27T15:37:28.993Z,8.90
2022-11-27T15:42:53.927Z,8.47
2022-11-27T15:48:21.200Z,10.47
2022-11-27T15:53:54.593Z,9.13
2022-11-27T15:59:20.992Z,8.17
2022-11-27T16:04:45.409Z,17.67
2022-11-27T16:10:33.498Z,11.23
2022-11-27T16:15:59.408Z,7.90
2022-11-27T16:21:29.714Z,9.43
2022-11-27T16:26:59.200Z,8.77
2022-11-27T16:32:26.248Z,14.03
2022-11-27T16:37:52.947Z,10.47
2022-11-27T16:43:23.528Z,8.47
2022-11-27T16:48:56.090Z,8.67
2022-11-27T16:54:19.240Z,9.13
2022-11-27T16:59:45.407Z,8.40
2022-11-27T17:05:27.678Z,15.37
2022-11-27T17:10:56.134Z,30.20
2022-11-27T17:16:35.577Z,17.37
2022-11-27T17:21:59.176Z,11.67
2022-11-27T17:27:29.477Z,8.83
2022-11-27T17:33:00.352Z,11.77
2022-11-27T17:38:36.817Z,12.43
2022-11-27T17:44:04.530Z,19.47
2022-11-27T17:49:29.586Z,23.77
2022-11-27T17:54:59.153Z,17.80
2022-11-27T18:00:37.366Z,15.03
2022-11-27T18:06:09.266Z,12.13
2022-11-27T18:11:38.889Z,15.07
2022-11-27T18:17:17.607Z,11.83
2022-11-27T18:22:48.856Z,11.50
2022-11-27T18:28:15.767Z,11.37
2022-11-27T18:33:51.838Z,10.17
2022-11-27T18:39:26.622Z,10.40
2022-11-27T18:45:02.047Z,13.73
2022-11-27T18:50:29.590Z,10.87
2022-11-27T18:55:57.120Z,11.90
2022-11-27T19:01:23.658Z,11.53
2022-11-27T19:07:03.435Z,10.60
2022-11-27T19:12:33.141Z,14.20
2022-11-27T19:18:03.166Z,13.47
2022-11-27T19:23:39.028Z,11.60
2022-11-27T19:29:09.052Z,12.77
2022-11-27T19:34:40.343Z,16.17
2022-11-27T19:40:09.287Z,11.93
2022-11-27T19:45:53.572Z,15.20
2022-11-27T19:51:21.265Z,12.23
2022-11-27T19:56:46.259Z,11.03
2022-11-27T20:02:16.501Z,13.47
2022-11-27T20:07:40.896Z,13.37
2022-11-27T20:13:04.828Z,13.37
2022-11-27T20:18:38.263Z,9.60
2022-11-27T20:24:08.778Z,11.23
2022-11-27T20:29:32.442Z,11.53
2022-11-27T20:34:58.958Z,12.70
2022-11-27T20:46:15.411Z,11.43
2022-11-27T20:51:42.969Z,10.70
2022-11-27T20:57:07.678Z,11.50
2022-11-27T21:02:34.019Z,13.73
2022-11-27T21:08:01.397Z,16.63
2022-11-27T21:13:36.154Z,11.43
2022-11-27T21:19:05.820Z,15.37
2022-11-27T21:24:34.710Z,13.90
2022-11-27T21:30:00.712Z,11.73
2022-11-27T21:35:31.686Z,12.00
2022-11-27T21:40:57.752Z,12.13
2022-11-27T21:46:25.324Z,12.70
2022-11-27T21:51:52.858Z,10.73
2022-11-27T21:57:24.304Z,12.33
2022-11-27T22:02:49.294Z,10.50
2022-11-27T22:08:15.681Z,12.77
2022-11-27T22:13:57.702Z,10.10
2022-11-27T22:19:29.682Z,11.17
2022-11-27T22:24:59.999Z,12.00
2022-11-27T22:30:27.224Z,11.53
2022-11-27T22:35:52.115Z,11.70
2022-11-27T22:41:16.904Z,12.40
2022-11-27T22:46:45.818Z,12.47
2022-11-27T22:52:11.359Z,13.10
2022-11-27T22:57:39.727Z,9.83
2022-11-27T23:03:06.555Z,12.93
2022-11-27T23:08:35.296Z,13.13
2022-11-27T23:14:06.536Z,10.67
2022-11-27T23:19:41.849Z,13.77
2022-11-27T23:25:05.843Z,11.40
2022-11-27T23:30:44.935Z,15.23
2022-11-27T23:36:14.952Z,11.03
2022-11-27T23:41:44.877Z,14.40
2022-11-27T23:47:13.047Z,13.00
2022-11-27T23:52:44.943Z,11.00
2022-11-27T23:58:24.621Z,11.53
